Scappoose, Oregon
Current Conditions -  °F | °C
As of 9:53 PM on Wednesday 22 Oct 2014 (Local Time) from KSPB Reporting Station
Light Rain Light Rain  
Wind Chill: 56°   Ceiling: 8500
Heat Index: 56°   Visibility: 10mi
Dew Point: 52°   Wind: 3mph
Humidity: 87%   Direction: 140°SE
Pressure: 29.73"   Gusts: NA
Location:  45.75°N, 122.88°W
Report Text: KSPB 230453Z AUTO 14003KT 10SM -RA FEW055 OVC085 13/11 A2973 RMK AO2 SLP067 P0001 T01330111
Loading
Personal Weather Stations






























Interactive Weather Map
Tropical Storm Tracking
New forecast layout! Learn more

10-Day Weather Forecast

Advertisements
Track Severe Weather on mobile